createdAt,value
2017-09-20T00:00:12.878Z,10.50
2017-09-20T00:02:47.342Z,10.50
2017-09-20T00:05:21.847Z,10.40
2017-09-20T00:07:55.600Z,10.40
2017-09-20T00:10:29.392Z,10.30
2017-09-20T00:13:04.598Z,10.40
2017-09-20T00:15:39.165Z,10.10
2017-09-20T00:18:12.873Z,10.20
2017-09-20T00:20:46.772Z,9.80
2017-09-20T00:23:20.534Z,9.70
2017-09-20T00:25:54.363Z,9.70
2017-09-20T00:28:28.942Z,9.40
2017-09-20T00:31:02.576Z,9.40
2017-09-20T00:33:36.238Z,9.50
2017-09-20T00:36:10.254Z,9.60
2017-09-20T00:38:44.017Z,9.60
2017-09-20T00:41:17.808Z,9.50
2017-09-20T00:43:51.575Z,9.50
2017-09-20T00:46:25.374Z,9.50
2017-09-20T00:48:59.042Z,9.60
2017-09-20T00:51:33.627Z,9.70
2017-09-20T00:54:07.268Z,9.90
2017-09-20T00:56:41.738Z,9.80
2017-09-20T00:59:15.611Z,9.60
2017-09-20T01:01:49.293Z,9.80
2017-09-20T01:04:24.521Z,10.00
2017-09-20T01:06:58.857Z,10.00
2017-09-20T01:09:32.568Z,10.00
2017-09-20T01:12:06.402Z,10.10
2017-09-20T01:14:40.245Z,10.10
2017-09-20T01:17:14.870Z,10.20
2017-09-20T01:19:48.521Z,10.20
2017-09-20T01:22:36.713Z,10.10
2017-09-20T01:25:10.464Z,10.10
2017-09-20T01:27:44.307Z,10.10
2017-09-20T01:30:19.595Z,10.00
2017-09-20T01:32:53.293Z,10.00
2017-09-20T01:35:28.312Z,10.10
2017-09-20T01:38:02.132Z,10.00
2017-09-20T01:40:36.584Z,10.20
2017-09-20T01:43:10.433Z,10.20
2017-09-20T01:45:44.252Z,10.00
2017-09-20T01:48:18.795Z,10.00
2017-09-20T01:50:52.376Z,10.00
2017-09-20T01:53:26.099Z,9.80
2017-09-20T01:55:59.784Z,9.90
2017-09-20T01:58:35.559Z,9.90
2017-09-20T02:01:09.874Z,10.00
2017-09-20T02:03:43.467Z,10.00
2017-09-20T02:06:17.211Z,10.10
2017-09-20T02:08:50.896Z,10.10
2017-09-20T02:11:26.570Z,10.10
2017-09-20T02:14:00.288Z,10.10
2017-09-20T02:16:34.067Z,9.90
2017-09-20T02:19:08.558Z,10.00
2017-09-20T02:21:42.310Z,9.90
2017-09-20T02:24:17.674Z,10.10
2017-09-20T02:26:52.157Z,10.10
2017-09-20T02:29:26.679Z,10.10
2017-09-20T02:32:01.054Z,10.20
2017-09-20T02:34:35.042Z,10.10
2017-09-20T02:37:08.925Z,10.20
2017-09-20T02:39:42.650Z,10.20
2017-09-20T02:42:17.231Z,10.20
2017-09-20T02:44:51.058Z,10.20
2017-09-20T02:47:25.731Z,10.20
2017-09-20T02:49:59.323Z,10.20
2017-09-20T02:52:32.931Z,10.20
2017-09-20T02:55:06.793Z,10.20
2017-09-20T02:57:41.819Z,10.20
2017-09-20T03:00:16.613Z,10.20
2017-09-20T03:02:50.383Z,10.20
2017-09-20T03:05:26.063Z,10.20
2017-09-20T03:08:01.110Z,10.00
2017-09-20T03:10:35.003Z,10.00
2017-09-20T03:13:09.637Z,10.10
2017-09-20T03:15:43.859Z,10.10
2017-09-20T03:18:17.641Z,10.00
2017-09-20T03:20:51.565Z,10.10
2017-09-20T03:23:25.259Z,10.10
2017-09-20T03:25:59.636Z,10.10
2017-09-20T03:28:33.289Z,10.00
2017-09-20T03:31:07.034Z,10.00
2017-09-20T03:33:41.610Z,10.10
2017-09-20T03:36:15.311Z,10.10
2017-09-20T03:38:49.937Z,10.20
2017-09-20T03:41:23.860Z,10.20
2017-09-20T03:43:57.435Z,10.20
2017-09-20T03:46:31.866Z,10.20
2017-09-20T03:49:06.274Z,10.10
2017-09-20T03:51:40.912Z,10.10
2017-09-20T03:54:15.065Z,10.10
2017-09-20T03:56:48.792Z,10.10
2017-09-20T03:59:23.402Z,10.20
2017-09-20T04:01:57.251Z,10.20
2017-09-20T04:04:31.873Z,10.20
2017-09-20T04:07:06.456Z,10.10
2017-09-20T04:09:40.980Z,10.10
2017-09-20T04:12:14.799Z,10.10
2017-09-20T04:14:49.598Z,10.10
2017-09-20T04:17:24.199Z,10.00
2017-09-20T04:19:57.832Z,10.00
2017-09-20T04:22:32.086Z,10.10
2017-09-20T04:25:05.823Z,10.10
2017-09-20T04:27:39.481Z,10.10
2017-09-20T04:30:13.327Z,10.10
2017-09-20T04:32:47.848Z,10.10
2017-09-20T04:35:22.196Z,10.20
2017-09-20T04:37:55.949Z,10.20
2017-09-20T04:40:29.780Z,10.20
2017-09-20T04:43:03.433Z,10.20
2017-09-20T04:45:37.943Z,10.20
2017-09-20T04:48:11.808Z,10.20
2017-09-20T04:50:45.571Z,10.20
2017-09-20T04:53:19.237Z,10.20
2017-09-20T04:55:52.849Z,10.20
2017-09-20T04:58:26.644Z,10.20
2017-09-20T05:01:01.240Z,9.80
2017-09-20T05:03:34.987Z,9.80
2017-09-20T05:06:09.176Z,9.90
2017-09-20T05:08:43.638Z,10.00
2017-09-20T05:11:17.510Z,10.00
2017-09-20T05:13:51.982Z,10.10
2017-09-20T05:16:25.897Z,10.00
2017-09-20T05:19:01.293Z,10.00
2017-09-20T05:21:36.654Z,10.10
2017-09-20T05:24:10.617Z,10.10
2017-09-20T05:26:44.637Z,10.20
2017-09-20T05:29:18.383Z,10.20
2017-09-20T05:31:52.187Z,10.20
2017-09-20T05:34:25.981Z,10.20
2017-09-20T05:36:59.734Z,10.20
2017-09-20T05:39:34.177Z,10.20
2017-09-20T05:42:07.851Z,10.20
2017-09-20T05:44:41.756Z,10.20
2017-09-20T05:47:15.501Z,10.20
2017-09-20T05:49:49.300Z,10.20
2017-09-20T05:52:23.232Z,10.00
2017-09-20T05:54:56.969Z,10.10
2017-09-20T05:57:30.995Z,10.10
2017-09-20T06:00:06.263Z,9.90
2017-09-20T06:02:40.663Z,9.70
2017-09-20T06:05:15.725Z,9.70
2017-09-20T06:07:50.014Z,9.60
2017-09-20T06:10:24.758Z,9.60
2017-09-20T06:12:58.510Z,9.80
2017-09-20T06:15:32.147Z,9.90
2017-09-20T06:18:06.610Z,10.10
2017-09-20T06:20:41.442Z,10.10
2017-09-20T06:23:15.103Z,10.20
2017-09-20T06:25:48.821Z,10.20
2017-09-20T06:28:22.569Z,10.20
2017-09-20T06:30:56.457Z,10.20
2017-09-20T06:33:30.203Z,10.20
2017-09-20T06:36:05.586Z,10.20
2017-09-20T06:38:39.354Z,10.20
2017-09-20T06:41:13.382Z,10.30
2017-09-20T06:43:48.601Z,10.30
2017-09-20T06:46:22.357Z,10.30
2017-09-20T06:48:56.097Z,10.30
2017-09-20T06:51:29.821Z,10.30
2017-09-20T06:54:05.072Z,10.30
2017-09-20T06:56:39.906Z,10.40
2017-09-20T06:59:14.169Z,10.40
2017-09-20T07:01:47.940Z,10.40
2017-09-20T07:04:21.746Z,10.40
2017-09-20T07:06:55.583Z,10.40
2017-09-20T07:09:29.402Z,10.40
2017-09-20T07:12:03.214Z,10.50
2017-09-20T07:14:36.960Z,10.30
2017-09-20T07:17:10.728Z,10.10
2017-09-20T07:19:44.555Z,10.00
2017-09-20T07:22:19.056Z,10.00
2017-09-20T07:24:52.736Z,10.10
2017-09-20T07:27:26.568Z,10.20
2017-09-20T07:30:00.336Z,10.30
2017-09-20T07:32:35.420Z,10.40
2017-09-20T07:35:09.139Z,10.40
2017-09-20T07:37:43.930Z,10.40
2017-09-20T07:40:19.644Z,10.50
2017-09-20T07:42:53.998Z,10.50
2017-09-20T07:45:27.655Z,10.50
2017-09-20T07:48:01.775Z,10.20
2017-09-20T07:50:35.457Z,10.30
2017-09-20T07:53:10.182Z,10.10
2017-09-20T07:55:43.922Z,10.00
2017-09-20T07:58:19.917Z,10.10
2017-09-20T08:00:53.749Z,10.10
2017-09-20T08:03:27.667Z,10.00
2017-09-20T08:06:01.789Z,9.90
2017-09-20T08:08:35.698Z,10.00
2017-09-20T08:11:10.177Z,10.10
2017-09-20T08:13:44.615Z,10.10
2017-09-20T08:16:19.010Z,10.20
2017-09-20T08:18:52.849Z,10.20
2017-09-20T08:21:26.709Z,10.10
2017-09-20T08:24:00.971Z,10.00
2017-09-20T08:26:37.006Z,9.90
2017-09-20T08:29:10.849Z,9.90
2017-09-20T08:31:44.666Z,9.80
2017-09-20T08:34:18.544Z,9.90
2017-09-20T08:36:52.439Z,9.80
2017-09-20T08:39:26.268Z,9.70
2017-09-20T08:41:59.854Z,9.70
2017-09-20T08:44:33.651Z,9.70
2017-09-20T08:47:08.122Z,9.80
2017-09-20T08:49:43.785Z,9.80
2017-09-20T08:52:17.578Z,9.80
2017-09-20T08:54:55.004Z,9.80
2017-09-20T08:57:29.294Z,9.80
2017-09-20T09:00:03.781Z,10.00
2017-09-20T09:02:38.250Z,10.00
2017-09-20T09:05:13.745Z,10.00
2017-09-20T09:07:47.655Z,10.00
2017-09-20T09:10:21.390Z,10.10
2017-09-20T09:12:55.205Z,10.10
2017-09-20T09:15:28.921Z,10.10
2017-09-20T09:18:03.480Z,10.10
2017-09-20T09:20:37.325Z,10.20
2017-09-20T09:23:11.845Z,10.30
2017-09-20T09:25:45.777Z,10.30
2017-09-20T09:28:19.327Z,10.30
2017-09-20T09:30:53.354Z,10.30
2017-09-20T09:33:28.338Z,10.20
2017-09-20T09:36:02.725Z,10.20
2017-09-20T09:38:37.332Z,10.10
2017-09-20T09:41:11.072Z,10.20
2017-09-20T09:43:44.947Z,10.10
2017-09-20T09:46:18.694Z,10.20
2017-09-20T09:48:52.675Z,10.20
2017-09-20T09:51:26.508Z,10.20
2017-09-20T09:54:00.344Z,10.20
2017-09-20T09:56:34.030Z,10.30
2017-09-20T09:59:07.799Z,10.30
2017-09-20T10:01:41.549Z,10.30
2017-09-20T10:04:15.337Z,10.40
2017-09-20T10:06:50.681Z,10.50
2017-09-20T10:09:24.430Z,10.50
2017-09-20T10:11:59.991Z,10.30
2017-09-20T10:14:34.929Z,10.30
2017-09-20T10:17:09.377Z,10.30
2017-09-20T10:19:43.277Z,10.30
2017-09-20T10:22:17.613Z,10.30
2017-09-20T10:24:52.386Z,10.30
2017-09-20T10:27:27.184Z,10.20
2017-09-20T10:30:01.749Z,10.30
2017-09-20T10:32:35.860Z,10.40
2017-09-20T10:35:09.617Z,10.20
2017-09-20T10:37:43.393Z,10.00
2017-09-20T10:40:18.876Z,10.10
2017-09-20T10:42:52.587Z,10.00
2017-09-20T10:45:26.358Z,10.10
2017-09-20T10:48:00.171Z,10.30
2017-09-20T10:50:34.296Z,10.40
2017-09-20T10:53:09.749Z,10.10
2017-09-20T10:55:43.490Z,9.70
2017-09-20T10:58:17.988Z,9.80
2017-09-20T11:00:52.559Z,9.90
2017-09-20T11:03:26.209Z,9.80
2017-09-20T11:06:00.031Z,9.90
2017-09-20T11:08:34.547Z,10.20
2017-09-20T11:11:09.133Z,10.20
2017-09-20T11:13:43.038Z,10.40
2017-09-20T11:16:16.919Z,10.50
2017-09-20T11:18:50.722Z,10.40
2017-09-20T11:21:24.592Z,10.20
2017-09-20T11:23:58.837Z,10.30
2017-09-20T11:26:32.621Z,10.50
2017-09-20T11:29:06.950Z,10.50
2017-09-20T11:31:41.949Z,10.60
2017-09-20T11:34:15.699Z,10.60
2017-09-20T11:36:49.537Z,10.60
2017-09-20T11:39:23.295Z,10.50
2017-09-20T11:41:57.742Z,10.60
2017-09-20T11:44:31.398Z,10.70
2017-09-20T11:47:05.616Z,10.60
2017-09-20T11:49:40.207Z,10.80
2017-09-20T11:52:14.029Z,10.80
2017-09-20T11:54:47.865Z,10.90
2017-09-20T11:57:22.288Z,10.90
2017-09-20T11:59:56.064Z,10.80
2017-09-20T12:02:29.806Z,10.90
2017-09-20T12:05:03.671Z,10.80
2017-09-20T12:07:37.508Z,10.70
2017-09-20T12:10:11.804Z,10.70
2017-09-20T12:12:46.940Z,10.80
2017-09-20T12:15:21.455Z,10.80
2017-09-20T12:22:29.630Z,10.90
2017-09-20T12:25:03.602Z,10.90
2017-09-20T12:27:37.383Z,10.30
2017-09-20T12:30:11.161Z,10.10
2017-09-20T12:32:45.088Z,10.00
2017-09-20T12:35:19.610Z,9.90
2017-09-20T12:37:54.186Z,10.20
2017-09-20T12:40:27.916Z,10.20
2017-09-20T12:43:01.761Z,10.30
2017-09-20T12:45:36.231Z,10.30
2017-09-20T12:48:11.191Z,10.30
2017-09-20T12:50:45.994Z,10.50
2017-09-20T12:53:21.286Z,10.50
2017-09-20T12:55:54.978Z,10.50
2017-09-20T12:58:28.856Z,10.50
2017-09-20T13:01:02.701Z,10.70
2017-09-20T13:03:36.519Z,10.90
2017-09-20T13:06:11.048Z,11.00
2017-09-20T13:08:45.710Z,10.70
2017-09-20T13:11:19.445Z,10.70
2017-09-20T13:13:53.116Z,10.80
2017-09-20T13:16:28.727Z,10.80
2017-09-20T13:19:03.467Z,10.70
2017-09-20T13:21:37.974Z,10.80
2017-09-20T13:24:12.510Z,10.80
2017-09-20T13:26:46.246Z,10.70
2017-09-20T13:29:20.157Z,10.60
2017-09-20T13:31:55.964Z,10.20
2017-09-20T13:34:30.607Z,10.20
2017-09-20T13:37:04.392Z,10.10
2017-09-20T13:39:39.941Z,10.30
2017-09-20T13:42:13.636Z,10.30
2017-09-20T13:44:47.454Z,10.30
2017-09-20T13:47:21.227Z,10.50
2017-09-20T13:49:55.088Z,10.50
2017-09-20T13:52:28.808Z,10.70
2017-09-20T13:55:02.765Z,10.80
2017-09-20T13:57:37.063Z,10.90
2017-09-20T14:00:11.785Z,10.90
2017-09-20T14:02:45.564Z,10.70
2017-09-20T14:05:19.416Z,10.70
2017-09-20T14:07:53.253Z,10.70
2017-09-20T14:10:27.019Z,10.90
2017-09-20T14:13:01.000Z,11.00
2017-09-20T14:15:35.478Z,11.10
2017-09-20T14:18:09.325Z,10.80
2017-09-20T14:20:43.066Z,11.00
2017-09-20T14:23:16.775Z,11.00
2017-09-20T14:25:50.661Z,10.90
2017-09-20T14:28:25.055Z,11.00
2017-09-20T14:30:59.846Z,11.10
2017-09-20T14:33:33.514Z,11.20
2017-09-20T14:36:07.396Z,11.30
2017-09-20T14:38:41.163Z,11.20
2017-09-20T14:41:14.898Z,11.30
2017-09-20T14:43:48.532Z,11.30
2017-09-20T14:46:23.837Z,11.00
2017-09-20T14:48:57.797Z,11.00
2017-09-20T14:51:31.555Z,10.90
2017-09-20T14:54:06.281Z,10.70
2017-09-20T14:56:39.840Z,10.90
2017-09-20T14:59:13.526Z,11.00
2017-09-20T15:01:48.149Z,11.10
2017-09-20T15:04:21.785Z,11.10
2017-09-20T15:06:56.706Z,11.20
2017-09-20T15:09:30.389Z,11.40
2017-09-20T15:12:04.104Z,11.40
2017-09-20T15:14:38.018Z,11.20
2017-09-20T15:17:12.552Z,11.30
2017-09-20T15:19:46.340Z,11.50
2017-09-20T15:22:20.759Z,11.50
2017-09-20T15:24:54.603Z,11.50
2017-09-20T15:27:28.403Z,11.40
2017-09-20T15:30:02.228Z,11.30
2017-09-20T15:32:35.885Z,11.30
2017-09-20T15:35:09.730Z,11.40
2017-09-20T15:37:43.595Z,11.40
2017-09-20T15:40:17.639Z,11.40
2017-09-20T15:42:51.348Z,11.40
2017-09-20T15:45:25.024Z,11.40
2017-09-20T15:47:58.723Z,11.60
2017-09-20T15:50:33.352Z,11.60
2017-09-20T15:53:08.908Z,11.60
2017-09-20T15:55:43.482Z,11.70
2017-09-20T15:58:18.667Z,11.70
2017-09-20T16:00:52.555Z,11.70
2017-09-20T16:03:27.316Z,11.50
2017-09-20T16:06:02.044Z,11.50
2017-09-20T16:08:36.464Z,11.40
2017-09-20T16:11:11.109Z,11.50
2017-09-20T16:13:44.981Z,11.50
2017-09-20T16:16:19.697Z,11.40
2017-09-20T16:18:53.598Z,11.40
2017-09-20T16:21:28.333Z,11.40
2017-09-20T16:24:02.176Z,11.50
2017-09-20T16:26:35.949Z,11.50
2017-09-20T16:29:09.601Z,11.40
2017-09-20T16:31:43.382Z,11.40
2017-09-20T16:34:17.045Z,11.50
2017-09-20T16:36:50.766Z,11.70
2017-09-20T16:39:24.549Z,11.70
2017-09-20T16:41:58.253Z,11.90
2017-09-20T16:44:33.874Z,11.30
2017-09-20T16:47:09.242Z,11.30
2017-09-20T16:49:43.902Z,11.20
2017-09-20T16:52:17.669Z,11.20
2017-09-20T16:54:51.481Z,11.30
2017-09-20T16:57:25.326Z,11.20
2017-09-20T16:59:59.143Z,11.20
2017-09-20T17:02:32.988Z,11.40
2017-09-20T17:05:07.005Z,11.40
2017-09-20T17:07:40.913Z,11.60
2017-09-20T17:10:14.576Z,11.60
2017-09-20T17:12:50.106Z,11.70
2017-09-20T17:15:24.894Z,11.70
2017-09-20T17:17:58.519Z,11.70
2017-09-20T17:20:32.381Z,11.50
2017-09-20T17:23:06.097Z,11.30
2017-09-20T17:25:41.452Z,11.40
2017-09-20T17:28:15.406Z,11.20
2017-09-20T17:30:50.059Z,11.00
2017-09-20T17:33:23.858Z,10.90
2017-09-20T17:35:58.213Z,10.70
2017-09-20T17:38:31.910Z,10.60
2017-09-20T17:41:05.725Z,10.70
2017-09-20T17:43:40.113Z,10.90
2017-09-20T17:46:14.607Z,11.10
2017-09-20T17:48:49.456Z,11.20
2017-09-20T17:51:23.340Z,11.20
2017-09-20T17:53:57.100Z,11.20
2017-09-20T17:56:31.692Z,11.30
2017-09-20T17:59:06.022Z,11.30
2017-09-20T18:01:40.128Z,11.40
2017-09-20T18:04:13.964Z,11.40
2017-09-20T18:06:47.733Z,11.40
2017-09-20T18:09:21.449Z,11.40
2017-09-20T18:11:56.077Z,10.70
2017-09-20T18:14:30.734Z,10.70
2017-09-20T18:17:04.794Z,10.60
2017-09-20T18:19:38.554Z,10.80
2017-09-20T18:22:12.222Z,11.00
2017-09-20T18:24:47.485Z,11.20
2017-09-20T18:27:23.358Z,11.20
2017-09-20T18:29:57.052Z,11.20
2017-09-20T18:32:30.613Z,11.30
2017-09-20T18:35:05.386Z,11.30
2017-09-20T18:37:39.914Z,11.30
2017-09-20T18:40:14.371Z,11.30
2017-09-20T18:42:48.098Z,11.40
2017-09-20T18:45:21.927Z,11.40
2017-09-20T18:47:56.585Z,11.30
2017-09-20T18:50:30.426Z,11.30
2017-09-20T18:53:04.357Z,11.30
2017-09-20T18:55:39.108Z,11.20
2017-09-20T18:58:12.865Z,11.20
2017-09-20T19:00:46.694Z,11.10
2017-09-20T19:03:20.633Z,11.00
2017-09-20T19:05:54.706Z,11.00
2017-09-20T19:08:29.316Z,10.90
2017-09-20T19:11:03.272Z,10.90
2017-09-20T19:13:37.009Z,11.00
2017-09-20T19:16:11.596Z,11.10
2017-09-20T19:18:46.587Z,11.10
2017-09-20T19:21:20.507Z,11.10
2017-09-20T19:23:54.997Z,11.00
2017-09-20T19:26:29.638Z,11.00
2017-09-20T19:29:06.717Z,11.10
2017-09-20T19:31:41.829Z,11.10
2017-09-20T19:34:17.678Z,11.10
2017-09-20T19:36:52.284Z,11.10
2017-09-20T19:39:26.432Z,10.90
2017-09-20T19:42:00.363Z,10.80
2017-09-20T19:44:34.285Z,10.80
2017-09-20T19:47:08.839Z,10.80
2017-09-20T19:49:42.725Z,10.60
2017-09-20T19:52:17.425Z,10.60
2017-09-20T19:54:51.159Z,10.60
2017-09-20T19:57:25.753Z,10.60
2017-09-20T19:59:59.673Z,10.70
2017-09-20T20:02:34.344Z,10.40
2017-09-20T20:05:08.307Z,10.50
2017-09-20T20:07:43.189Z,10.60
2017-09-20T20:10:17.350Z,10.70
2017-09-20T20:12:52.686Z,10.50
2017-09-20T20:15:27.684Z,10.10
2017-09-20T20:18:01.668Z,9.90
2017-09-20T20:20:35.490Z,10.00
2017-09-20T20:23:09.355Z,10.00
2017-09-20T20:25:43.218Z,9.70
2017-09-20T20:28:18.162Z,9.80
2017-09-20T20:30:52.327Z,10.10
2017-09-20T20:33:26.201Z,10.10
2017-09-20T20:36:00.755Z,10.30
2017-09-20T20:38:36.334Z,10.50
2017-09-20T20:41:10.361Z,10.60
2017-09-20T20:43:44.202Z,10.50
2017-09-20T20:46:17.960Z,10.60
2017-09-20T20:48:53.510Z,10.60
2017-09-20T20:51:27.663Z,10.60
2017-09-20T20:54:01.938Z,10.60
2017-09-20T20:56:35.971Z,10.60
2017-09-20T20:59:09.663Z,10.60
2017-09-20T21:01:43.612Z,10.60
2017-09-20T21:04:18.232Z,10.60
2017-09-20T21:06:52.028Z,10.60
2017-09-20T21:09:25.834Z,10.60
2017-09-20T21:11:59.706Z,10.60
2017-09-20T21:14:33.496Z,10.60
2017-09-20T21:17:07.443Z,10.60
2017-09-20T21:19:41.193Z,10.60
2017-09-20T21:22:15.065Z,10.60
2017-09-20T21:24:48.848Z,10.60
2017-09-20T21:27:22.796Z,10.50
2017-09-20T21:29:57.366Z,10.50
2017-09-20T21:32:31.121Z,10.50
2017-09-20T21:35:06.348Z,10.60
2017-09-20T21:37:40.274Z,10.50
2017-09-20T21:40:15.946Z,10.60
2017-09-20T21:42:49.675Z,10.60
2017-09-20T21:45:23.400Z,10.60
2017-09-20T21:47:57.286Z,10.50
2017-09-20T21:50:31.131Z,10.60
2017-09-20T21:53:04.827Z,10.60
2017-09-20T21:55:39.047Z,10.50
2017-09-20T21:58:12.869Z,10.50
2017-09-20T22:00:46.651Z,10.50
2017-09-20T22:03:20.511Z,10.50
2017-09-20T22:05:54.270Z,10.50
2017-09-20T22:08:28.945Z,10.50
2017-09-20T22:11:02.681Z,10.50
2017-09-20T22:13:37.452Z,10.40
2017-09-20T22:16:24.000Z,10.50
2017-09-20T22:19:09.744Z,10.50
2017-09-20T22:21:55.943Z,10.10
2017-09-20T22:24:41.607Z,10.10
2017-09-20T22:27:27.352Z,10.10
2017-09-20T22:30:01.987Z,10.30
2017-09-20T22:32:36.483Z,10.40
2017-09-20T22:35:10.299Z,10.40
2017-09-20T22:37:45.917Z,10.40
2017-09-20T22:40:19.590Z,10.40
2017-09-20T22:42:54.113Z,10.40
2017-09-20T22:45:27.906Z,10.40
2017-09-20T22:48:02.331Z,10.40
2017-09-20T22:50:36.915Z,10.30
2017-09-20T22:53:10.674Z,10.30
2017-09-20T22:55:44.652Z,10.40
2017-09-20T22:58:18.420Z,10.40
2017-09-20T23:00:52.678Z,10.30
2017-09-20T23:03:26.341Z,10.30
2017-09-20T23:06:00.005Z,10.30
2017-09-20T23:08:34.207Z,10.30
2017-09-20T23:11:08.637Z,10.30
2017-09-20T23:13:42.425Z,10.30
2017-09-20T23:16:16.931Z,10.30
2017-09-20T23:18:51.555Z,10.40
2017-09-20T23:21:25.318Z,10.40
2017-09-20T23:23:59.061Z,10.30
2017-09-20T23:26:32.782Z,10.40
2017-09-20T23:29:06.522Z,10.30
2017-09-20T23:31:43.780Z,10.30
2017-09-20T23:34:17.614Z,10.30
2017-09-20T23:36:52.106Z,10.40
2017-09-20T23:39:25.938Z,10.40
2017-09-20T23:41:59.711Z,10.40
2017-09-20T23:44:33.429Z,10.20
2017-09-20T23:47:08.117Z,10.20
2017-09-20T23:49:42.555Z,10.10
2017-09-20T23:52:16.258Z,10.10
2017-09-20T23:54:50.063Z,10.10
2017-09-20T23:57:23.803Z,10.20
2017-09-20T23:59:57.444Z,10.20
